Azusa, CA (91702)

4:27 AM PDT on November 01, 2014 (GMT -0700)
Mountain Cove Azusa Real Estate | Change Station
CLOSE
Current Station
Personal Weather Station
Location: By Dolf in AZUSA, CA
Elevation: 686 ft
Nearby Weather Stations
Active Advisory: Special Statement

Elev 686 ft 34.15 °N, 117.91 °W | Updated 4 seconds ago

Mostly Cloudy
Mostly Cloudy
57.4 °F
Feels Like 57.4 °F
N
2.3
Wind Variable Wind from South
Gusts 2.3 mph

Today
High -- | Low -- °F
--% Chance of Precip.
Yesterday
High -- | Low -- °F
Precip. -- in
7:11 AM 5:58 PM
Waxing Gibbous, 65% visible
Pressure 29.83 in
Visibility 9.0 miles
Clouds Scattered Clouds 900 ft
Mostly Cloudy 1400 ft
Mostly Cloudy 3300 ft
Dew Point 55 °F
Humidity 93%
Rainfall 0.64 in
Snow Depth Not available.
UV 0.0 out of 12
Pollen .60 out of 12
Air Quality Not available.
Flu Activity Not available.
METAR KONT 011053Z 25009KT 9SM -RA SCT009 BKN014 BKN033 14/13 A2985 RMK AO2 SLP099 P0004 T01440133 $

More Conditions Fewer Conditions

Pressure 29.83 in
Visibility 9.0 miles
Clouds Scattered Clouds 900 ft
Mostly Cloudy 1400 ft
Mostly Cloudy 3300 ft
Dew Point 55 °F
Humidity 93%
Rainfall 0.64 in
Snow Depth Not available.
UV 0.0 out of 12
Pollen .60 out of 12
Air Quality Not available.
Flu Activity Not available.
METAR KONT 011053Z 25009KT 9SM -RA SCT009 BKN014 BKN033 14/13 A2985 RMK AO2 SLP099 P0004 T01440133 $

More Conditions Fewer Conditions

10-Day Weather Forecast

Almanac

Astronomy

Nov. 01, 2014 Rise Set
Actual Time
Civil Twilight
Nautical Twilight
Astronomical Twilight
Moon
Length of Visible Light
Length of Day
Tomorrow will be .
, % of the Moon is Illuminated

Today's Extremes

State Highs State Lows

Community

WunderPhotos

Upload Photos

1,766,893 photos uploaded!

WunderBlogs® & News

Nearby

Air Quality

  Air Quality AQ Index Pollutant
Not available.

Snow Depth

Station Depth Elevation

Earthquake Activity

City Distance Mag. Time & Date
Minimum magnitude displayed is 2.5.

Coastal Water Temperatures

Place Temperature

Nearby Weather Stations